createdAt,value
2022-11-16T00:04:51.269Z,9.3
2022-11-16T00:09:53.251Z,9.2
2022-11-16T00:14:51.195Z,9.2
2022-11-16T00:19:51.115Z,9.2
2022-11-16T00:24:51.107Z,9.1
2022-11-16T00:29:53.578Z,9.1
2022-11-16T00:34:51.052Z,9.2
2022-11-16T00:39:51.040Z,9.1
2022-11-16T00:44:51.041Z,9.1
2022-11-16T00:49:51.008Z,9.1
2022-11-16T00:54:51.039Z,9.0
2022-11-16T00:59:50.962Z,8.9
2022-11-16T01:04:50.956Z,8.9
2022-11-16T01:09:50.872Z,8.8
2022-11-16T01:14:50.858Z,8.8
2022-11-16T01:19:50.770Z,8.6
2022-11-16T01:24:50.729Z,8.6
2022-11-16T01:29:50.668Z,8.6
2022-11-16T01:34:50.577Z,8.6
2022-11-16T01:39:50.496Z,8.5
2022-11-16T01:44:50.536Z,8.4
2022-11-16T01:49:50.382Z,8.4
2022-11-16T01:54:50.318Z,8.3
2022-11-16T01:59:50.258Z,8.2
2022-11-16T02:04:50.191Z,8.2
2022-11-16T02:09:52.111Z,8.2
2022-11-16T02:14:50.066Z,8.2
2022-11-16T02:19:52.000Z,8.2
2022-11-16T02:24:49.944Z,8.3
2022-11-16T02:29:49.889Z,8.5
2022-11-16T02:34:49.820Z,8.6
2022-11-16T02:39:49.746Z,8.8
2022-11-16T02:44:49.666Z,8.8
2022-11-16T02:49:49.565Z,8.8
2022-11-16T02:54:49.497Z,8.8
2022-11-16T02:59:49.416Z,8.8
2022-11-16T03:04:49.445Z,8.8
2022-11-16T03:09:49.241Z,8.8
2022-11-16T03:14:49.212Z,8.8
2022-11-16T03:19:49.120Z,8.8
2022-11-16T03:24:49.075Z,8.6
2022-11-16T03:29:49.032Z,8.5
2022-11-16T03:34:48.959Z,8.7
2022-11-16T03:39:48.858Z,8.8
2022-11-16T03:44:48.831Z,8.9
2022-11-16T03:49:48.782Z,8.9
2022-11-16T03:54:48.688Z,9.0
2022-11-16T04:04:48.569Z,9.2
2022-11-16T04:09:48.558Z,9.1
2022-11-16T04:14:52.535Z,9.2
2022-11-16T04:19:48.443Z,9.3
2022-11-16T04:24:48.424Z,9.3
2022-11-16T04:29:48.459Z,9.4
2022-11-16T04:34:48.320Z,9.4
2022-11-16T04:39:48.289Z,9.4
2022-11-16T04:44:50.739Z,9.4
2022-11-16T04:49:48.387Z,9.4
2022-11-16T04:54:50.662Z,9.4
2022-11-16T04:59:48.093Z,9.4
2022-11-16T05:04:50.488Z,9.3
2022-11-16T05:09:47.997Z,9.3
2022-11-16T05:14:47.951Z,9.3
2022-11-16T05:19:47.889Z,9.3
2022-11-16T05:24:47.833Z,9.4
2022-11-16T05:29:47.901Z,9.4
2022-11-16T05:39:47.928Z,9.5
2022-11-16T05:44:51.713Z,9.6
2022-11-16T05:49:47.583Z,9.6
2022-11-16T05:54:47.551Z,9.6
2022-11-16T06:04:47.798Z,9.7
2022-11-16T06:09:47.354Z,9.7
2022-11-16T06:14:47.337Z,9.7
2022-11-16T06:19:47.276Z,9.6
2022-11-16T06:24:47.277Z,9.5
2022-11-16T06:29:47.216Z,9.5
2022-11-16T06:34:47.216Z,9.6
2022-11-16T06:39:47.181Z,9.6
2022-11-16T06:44:47.203Z,9.6
2022-11-16T06:49:47.178Z,9.5
2022-11-16T06:54:47.162Z,9.5
2022-11-16T06:59:47.146Z,9.2
2022-11-16T07:04:47.174Z,9.1
2022-11-16T07:09:47.077Z,8.9
2022-11-16T07:14:47.112Z,9.0
2022-11-16T07:19:47.032Z,8.9
2022-11-16T07:24:46.975Z,8.9
2022-11-16T07:29:46.901Z,8.9
2022-11-16T07:34:46.886Z,8.9
2022-11-16T07:39:46.861Z,9.1
2022-11-16T07:44:46.992Z,9.0
2022-11-16T07:49:46.755Z,8.9
2022-11-16T07:54:46.793Z,9.0
2022-11-16T07:59:46.640Z,8.9
2022-11-16T08:09:46.599Z,8.6
2022-11-16T08:14:46.730Z,8.6
2022-11-16T08:19:46.488Z,8.7
2022-11-16T08:24:46.293Z,8.8
2022-11-16T08:29:46.238Z,8.8
2022-11-16T08:34:46.206Z,8.9
2022-11-16T08:39:46.141Z,9.0
2022-11-16T08:44:46.093Z,8.9
2022-11-16T08:49:49.533Z,8.8
2022-11-16T08:54:48.125Z,8.8
2022-11-16T08:59:45.967Z,8.8
2022-11-16T09:04:45.924Z,9.1
2022-11-16T09:09:45.868Z,9.4
2022-11-16T09:14:45.823Z,9.4
2022-11-16T09:19:45.788Z,9.5
2022-11-16T09:24:45.785Z,9.5
2022-11-16T09:29:45.757Z,9.4
2022-11-16T09:34:45.686Z,9.4
2022-11-16T09:39:45.623Z,9.4
2022-11-16T09:44:45.636Z,9.5
2022-11-16T09:49:45.579Z,9.6
2022-11-16T09:54:46.027Z,9.8
2022-11-16T09:59:45.595Z,10.1
2022-11-16T10:09:45.577Z,10.2
2022-11-16T10:14:45.667Z,10.3
2022-11-16T10:19:45.528Z,10.4
2022-11-16T10:24:45.521Z,10.4
2022-11-16T10:29:45.580Z,10.4
2022-11-16T10:34:45.491Z,10.4
2022-11-16T10:39:45.502Z,10.5
2022-11-16T10:44:45.505Z,10.7
2022-11-16T10:49:45.506Z,11.0
2022-11-16T10:54:45.533Z,11.3
2022-11-16T10:59:45.549Z,11.7
2022-11-16T11:04:45.565Z,12.0
2022-11-16T11:14:45.680Z,12.6
2022-11-16T11:24:46.015Z,12.7
2022-11-16T11:29:48.020Z,12.6
2022-11-16T11:34:45.950Z,12.5
2022-11-16T11:39:50.141Z,12.3
2022-11-16T11:44:46.697Z,12.2
2022-11-16T12:19:49.143Z,12.6
2022-11-16T12:34:47.491Z,12.7
2022-11-16T12:39:47.358Z,12.6
2022-11-16T12:44:47.498Z,12.6
2022-11-16T12:49:47.289Z,12.7
2022-11-16T12:55:24.739Z,12.8
2022-11-16T13:04:47.670Z,12.8
2022-11-16T13:14:49.852Z,13.1
2022-11-16T17:49:50.587Z,10.2
2022-11-16T17:54:50.803Z,10.2
2022-11-16T18:04:53.336Z,10.2
2022-11-16T18:09:50.718Z,10.1
2022-11-16T18:15:13.859Z,10.1
2022-11-16T18:19:50.701Z,10.0
2022-11-16T18:24:50.879Z,9.9
2022-11-16T18:29:50.747Z,9.9
2022-11-16T18:34:50.936Z,9.9
2022-11-16T18:36:52.022Z,9.9
2022-11-16T18:38:07.751Z,9.9
2022-11-16T18:39:32.688Z,9.9
2022-11-16T18:39:54.676Z,9.9
2022-11-16T18:44:50.980Z,9.9
2022-11-16T18:48:39.889Z,9.9
2022-11-16T18:49:12.581Z,9.8
2022-11-16T18:49:50.813Z,9.8
2022-11-16T18:54:50.997Z,9.8
2022-11-16T18:57:46.400Z,9.8
2022-11-16T18:59:50.868Z,9.8
2022-11-16T19:04:51.033Z,9.8
2022-11-16T19:09:50.858Z,9.8
2022-11-16T19:14:51.062Z,9.8
2022-11-16T19:19:50.928Z,9.8
2022-11-16T19:24:51.062Z,9.8
2022-11-16T19:29:50.929Z,9.9
2022-11-16T19:34:51.129Z,9.9
2022-11-16T19:39:51.028Z,9.9
2022-11-16T19:44:51.195Z,10.0
2022-11-16T19:49:51.082Z,10.0
2022-11-16T19:54:51.314Z,10.0
2022-11-16T19:59:51.151Z,10.1
2022-11-16T20:04:51.274Z,10.1
2022-11-16T20:09:53.450Z,10.2
2022-11-16T20:14:51.403Z,10.2
2022-11-16T20:19:51.164Z,10.2
2022-11-16T20:24:51.343Z,10.3
2022-11-16T20:29:51.197Z,10.4
2022-11-16T20:34:51.386Z,10.4
2022-11-16T20:39:51.431Z,10.4
2022-11-16T20:44:51.432Z,10.4
2022-11-16T20:49:51.290Z,10.2
2022-11-16T20:54:51.519Z,10.3
2022-11-16T20:59:51.339Z,10.3
2022-11-16T21:08:43.804Z,10.4
2022-11-16T21:09:51.364Z,10.3
2022-11-16T21:14:51.792Z,10.3
2022-11-16T21:24:51.549Z,10.4
2022-11-16T21:29:14.683Z,10.4
2022-11-16T21:29:51.600Z,10.4
2022-11-16T21:39:51.533Z,10.4
2022-11-16T21:42:12.701Z,10.4
2022-11-16T21:42:37.888Z,10.4
2022-11-16T21:44:51.594Z,10.4
2022-11-16T21:50:16.714Z,10.4
2022-11-16T21:54:51.492Z,10.4
2022-11-16T21:59:51.456Z,10.5
2022-11-16T22:09:53.417Z,10.4
2022-11-16T22:19:51.429Z,10.3
2022-11-16T22:24:51.443Z,10.2
2022-11-16T22:29:51.465Z,10.2
2022-11-16T22:34:51.431Z,10.2
2022-11-16T22:49:51.465Z,10.0
2022-11-16T22:59:51.411Z,9.9
2022-11-16T23:04:51.443Z,9.9
2022-11-16T23:09:51.504Z,9.9
2022-11-16T23:14:51.468Z,9.9
2022-11-16T23:19:51.455Z,9.9
2022-11-16T23:24:51.475Z,9.9
2022-11-16T23:29:51.400Z,9.9
2022-11-16T23:34:51.394Z,9.9
2022-11-16T23:39:51.392Z,9.8
2022-11-16T23:44:51.381Z,9.8
2022-11-16T23:49:51.443Z,9.8
2022-11-16T23:54:51.358Z,9.7
2022-11-16T23:59:53.358Z,9.7
